createdAt,value
2018-08-19T00:00:52.801Z,95868.00
2018-08-19T00:03:21.830Z,95874.00
2018-08-19T00:05:50.841Z,95874.00
2018-08-19T00:08:19.842Z,95875.00
2018-08-19T00:11:02.121Z,95876.00
2018-08-19T00:13:31.157Z,95872.00
2018-08-19T00:16:00.172Z,95870.00
2018-08-19T00:18:29.174Z,95879.00
2018-08-19T00:20:58.374Z,95872.00
2018-08-19T00:23:35.233Z,95873.00
2018-08-19T00:26:04.536Z,95874.00
2018-08-19T00:28:33.538Z,95876.00
2018-08-19T00:31:04.735Z,95874.00
2018-08-19T00:33:34.152Z,95884.00
2018-08-19T00:36:18.335Z,95878.00
2018-08-19T00:38:47.346Z,95873.00
2018-08-19T00:41:16.326Z,95874.00
2018-08-19T00:43:45.316Z,95872.00
2018-08-19T00:46:29.081Z,95875.00
2018-08-19T00:48:58.722Z,95875.00
2018-08-19T00:51:27.798Z,95875.00
2018-08-19T00:53:57.198Z,95871.00
2018-08-19T00:56:26.201Z,95874.00
2018-08-19T00:58:55.199Z,95874.00
2018-08-19T01:01:37.498Z,95883.00
2018-08-19T01:04:09.605Z,95883.00
2018-08-19T01:06:43.755Z,95882.00
2018-08-19T01:09:12.773Z,95885.00
2018-08-19T01:11:43.598Z,95878.00
2018-08-19T01:14:14.997Z,95884.00
2018-08-19T01:16:44.013Z,95881.00
2018-08-19T01:19:13.069Z,95885.00
2018-08-19T01:21:42.082Z,95891.00
2018-08-19T01:24:12.390Z,95885.00
2018-08-19T01:26:42.386Z,95885.00
2018-08-19T01:29:12.042Z,95880.00
2018-08-19T01:31:41.078Z,95884.00
2018-08-19T01:34:13.134Z,95882.00
2018-08-19T01:36:42.270Z,95884.00
2018-08-19T01:39:12.593Z,95891.00
2018-08-19T01:41:42.255Z,95887.00
2018-08-19T01:44:14.202Z,95880.00
2018-08-19T01:46:46.906Z,95889.00
2018-08-19T01:49:15.910Z,95880.00
2018-08-19T01:51:45.246Z,95884.00
2018-08-19T01:54:22.248Z,95879.00
2018-08-19T01:56:55.144Z,95883.00
2018-08-19T01:59:30.555Z,95883.00
2018-08-19T02:02:02.833Z,95883.00
2018-08-19T02:04:32.992Z,95876.00
2018-08-19T02:07:02.038Z,95887.00
2018-08-19T02:09:31.150Z,95883.00
2018-08-19T02:12:00.865Z,95884.00
2018-08-19T02:14:29.869Z,95887.00
2018-08-19T02:16:58.902Z,95888.00
2018-08-19T02:19:28.007Z,95887.00
2018-08-19T02:21:56.998Z,95889.00
2018-08-19T02:24:26.007Z,95881.00
2018-08-19T02:26:54.998Z,95881.00
2018-08-19T02:29:34.135Z,95884.00
2018-08-19T02:32:04.489Z,95884.00
2018-08-19T02:34:35.531Z,95882.00
2018-08-19T02:37:07.003Z,95879.00
2018-08-19T02:39:38.765Z,95871.00
2018-08-19T02:42:24.942Z,95874.00
2018-08-19T02:45:09.192Z,95874.00
2018-08-19T02:47:38.174Z,95871.00
2018-08-19T02:50:07.182Z,95869.00
2018-08-19T02:52:38.062Z,95874.00
2018-08-19T02:55:08.390Z,95872.00
2018-08-19T02:57:40.376Z,95873.00
2018-08-19T03:00:11.439Z,95875.00
2018-08-19T03:02:41.654Z,95870.00
2018-08-19T03:05:13.589Z,95873.00
2018-08-19T03:07:43.390Z,95882.00
2018-08-19T03:10:13.740Z,95870.00
2018-08-19T03:12:43.111Z,95879.00
2018-08-19T03:15:13.556Z,95878.00
2018-08-19T03:17:42.980Z,95872.00
2018-08-19T03:20:13.430Z,95871.00
2018-08-19T03:22:42.646Z,95870.00
2018-08-19T03:25:11.877Z,95872.00
2018-08-19T03:27:40.912Z,95877.00
2018-08-19T03:30:12.875Z,95863.00
2018-08-19T03:32:49.086Z,95855.00
2018-08-19T03:35:21.622Z,95871.00
2018-08-19T03:37:53.542Z,95868.00
2018-08-19T03:40:24.937Z,95866.00
2018-08-19T03:42:54.185Z,95862.00
2018-08-19T03:45:23.238Z,95866.00
2018-08-19T03:47:53.131Z,95860.00
2018-08-19T03:50:23.166Z,95867.00
2018-08-19T03:52:52.851Z,95865.00
2018-08-19T03:55:26.607Z,95866.00
2018-08-19T03:58:04.860Z,95874.00
2018-08-19T04:00:35.096Z,95875.00
2018-08-19T04:03:16.959Z,95873.00
2018-08-19T04:05:50.395Z,95879.00
2018-08-19T04:08:19.409Z,95886.00
2018-08-19T04:10:48.939Z,95877.00
2018-08-19T04:13:36.902Z,95880.00
2018-08-19T04:16:07.577Z,95881.00
2018-08-19T04:18:40.768Z,95879.00
2018-08-19T04:21:12.845Z,95880.00
2018-08-19T04:23:45.392Z,95878.00
2018-08-19T04:26:14.387Z,95884.00
2018-08-19T04:28:44.502Z,95886.00
2018-08-19T04:31:19.682Z,95884.00
2018-08-19T04:33:49.365Z,95886.00
2018-08-19T04:36:19.616Z,95880.00
2018-08-19T04:38:48.618Z,95886.00
2018-08-19T04:41:17.846Z,95881.00
2018-08-19T04:43:47.573Z,95880.00
2018-08-19T04:46:16.578Z,95881.00
2018-08-19T04:48:46.035Z,95885.00
2018-08-19T04:51:15.088Z,95882.00
2018-08-19T04:53:44.075Z,95877.00
2018-08-19T04:56:13.082Z,95883.00
2018-08-19T04:58:42.090Z,95877.00
2018-08-19T05:01:12.266Z,95883.00
2018-08-19T05:03:43.702Z,95879.00
2018-08-19T05:06:12.714Z,95895.00
2018-08-19T05:08:41.763Z,95891.00
2018-08-19T05:11:10.785Z,95893.00
2018-08-19T05:13:39.771Z,95889.00
2018-08-19T05:16:08.767Z,95898.00
2018-08-19T05:18:37.759Z,95895.00
2018-08-19T05:21:12.102Z,95895.00
2018-08-19T05:23:41.093Z,95903.00
2018-08-19T05:26:12.345Z,95895.00
2018-08-19T05:28:41.604Z,95897.00
2018-08-19T05:31:10.618Z,95906.00
2018-08-19T05:33:42.211Z,95915.00
2018-08-19T05:36:11.202Z,95899.00
2018-08-19T05:38:40.206Z,95910.00
2018-08-19T05:41:10.910Z,95904.00
2018-08-19T05:43:39.898Z,95913.00
2018-08-19T05:46:08.910Z,95913.00
2018-08-19T05:48:37.897Z,95905.00
2018-08-19T05:51:06.875Z,95906.00
2018-08-19T05:53:38.491Z,95908.00
2018-08-19T05:56:07.491Z,95916.00
2018-08-19T05:58:36.650Z,95915.00
2018-08-19T06:01:05.888Z,95923.00
2018-08-19T06:03:34.986Z,95920.00
2018-08-19T06:06:04.098Z,95927.00
2018-08-19T06:08:33.242Z,95924.00
2018-08-19T06:11:02.456Z,95921.00
2018-08-19T06:13:31.632Z,95923.00
2018-08-19T06:16:00.811Z,95922.00
2018-08-19T06:18:29.886Z,95924.00
2018-08-19T06:20:59.058Z,95929.00
2018-08-19T06:23:28.267Z,95922.00
2018-08-19T06:25:57.459Z,95916.00
2018-08-19T06:28:27.319Z,95918.00
2018-08-19T06:30:56.549Z,95925.00
2018-08-19T06:33:25.666Z,95917.00
2018-08-19T06:35:54.877Z,95924.00
2018-08-19T06:38:24.065Z,95923.00
2018-08-19T06:40:53.215Z,95931.00
2018-08-19T06:43:22.278Z,95927.00
2018-08-19T06:45:51.462Z,95923.00
2018-08-19T06:48:20.574Z,95919.00
2018-08-19T06:50:49.645Z,95922.00
2018-08-19T06:53:24.505Z,95930.00
2018-08-19T06:55:53.631Z,95926.00
2018-08-19T06:58:23.576Z,95923.00
2018-08-19T07:00:52.712Z,95922.00
2018-08-19T07:03:21.980Z,95926.00
2018-08-19T07:06:07.174Z,95920.00
2018-08-19T07:08:36.315Z,95924.00
2018-08-19T07:11:05.450Z,95916.00
2018-08-19T07:13:34.635Z,95915.00
2018-08-19T07:16:03.802Z,95922.00
2018-08-19T07:18:32.861Z,95916.00
2018-08-19T07:21:02.033Z,95914.00
2018-08-19T07:23:31.293Z,95916.00
2018-08-19T07:26:00.351Z,95920.00
2018-08-19T07:28:29.551Z,95926.00
2018-08-19T07:30:58.745Z,95924.00
2018-08-19T07:33:27.934Z,95922.00
2018-08-19T07:35:57.068Z,95924.00
2018-08-19T07:38:27.310Z,95912.00
2018-08-19T07:40:56.431Z,95916.00
2018-08-19T07:43:25.762Z,95918.00
2018-08-19T07:45:54.958Z,95919.00
2018-08-19T07:48:23.983Z,95916.00
2018-08-19T07:50:53.155Z,95918.00
2018-08-19T07:53:22.307Z,95912.00
2018-08-19T07:55:51.497Z,95915.00
2018-08-19T07:58:35.074Z,95917.00
2018-08-19T08:01:04.218Z,95917.00
2018-08-19T08:03:33.574Z,95919.00
2018-08-19T08:06:03.418Z,95920.00
2018-08-19T08:08:33.609Z,95920.00
2018-08-19T08:11:03.534Z,95924.00
2018-08-19T08:13:33.554Z,95923.00
2018-08-19T08:16:03.908Z,95927.00
2018-08-19T08:18:33.710Z,95921.00
2018-08-19T08:21:08.988Z,95933.00
2018-08-19T08:23:38.142Z,95926.00
2018-08-19T08:26:07.174Z,95922.00
2018-08-19T08:28:36.227Z,95923.00
2018-08-19T08:31:09.254Z,95922.00
2018-08-19T08:33:40.235Z,95926.00
2018-08-19T08:36:10.620Z,95909.00
2018-08-19T08:38:41.914Z,95921.00
2018-08-19T08:41:10.948Z,95918.00
2018-08-19T08:43:40.049Z,95913.00
2018-08-19T08:46:09.203Z,95914.00
2018-08-19T08:48:38.435Z,95905.00
2018-08-19T08:51:07.445Z,95921.00
2018-08-19T08:53:44.399Z,95906.00
2018-08-19T08:56:14.155Z,95909.00
2018-08-19T08:58:43.150Z,95902.00
2018-08-19T09:01:12.267Z,95908.00
2018-08-19T09:03:41.482Z,95904.00
2018-08-19T09:06:18.387Z,95899.00
2018-08-19T09:08:47.546Z,95893.00
2018-08-19T09:11:18.474Z,95898.00
2018-08-19T09:13:47.814Z,95897.00
2018-08-19T09:16:16.974Z,95897.00
2018-08-19T09:18:46.186Z,95892.00
2018-08-19T09:21:15.638Z,95896.00
2018-08-19T09:23:44.769Z,95888.00
2018-08-19T09:26:14.042Z,95893.00
2018-08-19T09:28:43.135Z,95889.00
2018-08-19T09:31:12.258Z,95882.00
2018-08-19T09:33:41.381Z,95887.00
2018-08-19T09:36:10.568Z,95888.00
2018-08-19T09:38:39.777Z,95882.00
2018-08-19T09:41:09.746Z,95888.00
2018-08-19T09:43:38.878Z,95888.00
2018-08-19T09:46:07.979Z,95884.00
2018-08-19T09:48:37.371Z,95875.00
2018-08-19T09:51:12.564Z,95883.00
2018-08-19T09:53:41.709Z,95880.00
2018-08-19T09:56:11.629Z,95883.00
2018-08-19T09:58:42.747Z,95875.00
2018-08-19T10:01:15.354Z,95876.00
2018-08-19T10:03:44.556Z,95870.00
2018-08-19T10:06:13.694Z,95864.00
2018-08-19T10:08:42.875Z,95863.00
2018-08-19T10:11:12.033Z,95865.00
2018-08-19T10:13:41.261Z,95858.00
2018-08-19T10:16:10.359Z,95859.00
2018-08-19T10:18:39.478Z,95847.00
2018-08-19T10:21:13.754Z,95851.00
2018-08-19T10:23:43.218Z,95842.00
2018-08-19T10:26:12.298Z,95848.00
2018-08-19T10:28:41.599Z,95840.00
2018-08-19T10:31:17.351Z,95838.00
2018-08-19T10:33:50.547Z,95848.00
2018-08-19T10:36:19.705Z,95839.00
2018-08-19T10:38:48.901Z,95836.00
2018-08-19T10:41:17.920Z,95833.00
2018-08-19T10:43:47.110Z,95833.00
2018-08-19T10:46:16.289Z,95825.00
2018-08-19T10:48:45.338Z,95825.00
2018-08-19T10:51:14.450Z,95828.00
2018-08-19T10:53:44.647Z,95829.00
2018-08-19T10:56:13.757Z,95828.00
2018-08-19T10:58:47.131Z,95831.00
2018-08-19T11:01:16.171Z,95827.00
2018-08-19T11:03:45.390Z,95824.00
2018-08-19T11:06:14.546Z,95820.00
2018-08-19T11:08:47.857Z,95833.00
2018-08-19T11:11:17.120Z,95823.00
2018-08-19T11:13:46.231Z,95823.00
2018-08-19T11:16:15.411Z,95812.00
2018-08-19T11:18:47.542Z,95815.00
2018-08-19T11:21:26.726Z,95814.00
2018-08-19T11:23:56.465Z,95812.00
2018-08-19T11:26:25.565Z,95807.00
2018-08-19T11:28:57.730Z,95809.00
2018-08-19T11:31:30.481Z,95809.00
2018-08-19T11:34:02.994Z,95805.00
2018-08-19T11:36:38.265Z,95803.00
2018-08-19T11:39:10.917Z,95798.00
2018-08-19T11:41:39.955Z,95791.00
2018-08-19T11:44:13.519Z,95795.00
2018-08-19T11:46:42.846Z,95797.00
2018-08-19T11:49:13.358Z,95798.00
2018-08-19T11:51:53.730Z,95790.00
2018-08-19T11:54:23.711Z,95792.00
2018-08-19T11:57:00.639Z,95788.00
2018-08-19T11:59:38.894Z,95786.00
2018-08-19T12:02:15.327Z,95792.00
2018-08-19T12:04:44.895Z,95777.00
2018-08-19T12:07:14.006Z,95776.00
2018-08-19T12:09:45.528Z,95780.00
2018-08-19T12:12:14.582Z,95775.00
2018-08-19T12:14:43.771Z,95774.00
2018-08-19T12:17:13.177Z,95771.00
2018-08-19T12:19:43.831Z,95774.00
2018-08-19T12:22:13.091Z,95772.00
2018-08-19T12:24:47.310Z,95772.00
2018-08-19T12:27:22.348Z,95770.00
2018-08-19T12:29:56.126Z,95766.00
2018-08-19T12:32:27.038Z,95767.00
2018-08-19T12:34:58.480Z,95757.00
2018-08-19T12:37:28.936Z,95758.00
2018-08-19T12:39:58.591Z,95755.00
2018-08-19T12:42:28.409Z,95753.00
2018-08-19T12:45:02.218Z,95754.00
2018-08-19T12:47:31.338Z,95745.00
2018-08-19T12:50:02.892Z,95740.00
2018-08-19T12:52:33.398Z,95742.00
2018-08-19T12:55:04.274Z,95732.00
2018-08-19T12:57:33.640Z,95731.00
2018-08-19T13:00:11.014Z,95735.00
2018-08-19T13:02:43.965Z,95734.00
2018-08-19T13:05:14.167Z,95722.00
2018-08-19T13:07:43.219Z,95729.00
2018-08-19T13:10:12.357Z,95730.00
2018-08-19T13:12:57.950Z,95716.00
2018-08-19T13:15:30.086Z,95724.00
2018-08-19T13:17:59.228Z,95711.00
2018-08-19T13:20:28.368Z,95720.00
2018-08-19T13:23:01.114Z,95725.00
2018-08-19T13:25:30.615Z,95718.00
2018-08-19T13:27:59.779Z,95711.00
2018-08-19T13:30:28.915Z,95710.00
2018-08-19T13:32:57.954Z,95707.00
2018-08-19T13:35:27.310Z,95711.00
2018-08-19T13:37:56.429Z,95707.00
2018-08-19T13:40:25.561Z,95714.00
2018-08-19T13:42:54.751Z,95704.00
2018-08-19T13:45:26.549Z,95702.00
2018-08-19T13:47:55.550Z,95703.00
2018-08-19T13:50:24.663Z,95694.00
2018-08-19T13:52:53.782Z,95699.00
2018-08-19T13:55:22.902Z,95695.00
2018-08-19T13:57:52.078Z,95693.00
2018-08-19T14:00:23.074Z,95688.00
2018-08-19T14:02:52.405Z,95689.00
2018-08-19T14:05:21.544Z,95681.00
2018-08-19T14:07:50.662Z,95683.00
2018-08-19T14:10:19.934Z,95682.00
2018-08-19T14:12:49.146Z,95685.00
2018-08-19T14:15:18.275Z,95679.00
2018-08-19T14:17:47.373Z,95676.00
2018-08-19T14:20:16.507Z,95678.00
2018-08-19T14:22:45.586Z,95679.00
2018-08-19T14:25:14.781Z,95674.00
2018-08-19T14:27:43.874Z,95676.00
2018-08-19T14:30:13.281Z,95678.00
2018-08-19T14:32:43.840Z,95673.00
2018-08-19T14:35:13.154Z,95663.00
2018-08-19T14:37:42.462Z,95666.00
2018-08-19T14:40:14.966Z,95666.00
2018-08-19T14:42:44.021Z,95667.00
2018-08-19T14:45:13.239Z,95662.00
2018-08-19T14:47:42.362Z,95656.00
2018-08-19T14:50:15.460Z,95656.00
2018-08-19T14:52:44.502Z,95651.00
2018-08-19T14:55:13.574Z,95650.00
2018-08-19T14:57:43.750Z,95659.00
2018-08-19T15:00:15.107Z,95657.00
2018-08-19T15:02:44.255Z,95651.00
2018-08-19T15:05:15.859Z,95651.00
2018-08-19T15:07:45.357Z,95644.00
2018-08-19T15:10:22.053Z,95646.00
2018-08-19T15:12:51.267Z,95651.00
2018-08-19T15:15:20.459Z,95636.00
2018-08-19T15:17:54.522Z,95638.00
2018-08-19T15:20:31.742Z,95629.00
2018-08-19T15:23:18.923Z,95634.00
2018-08-19T15:25:48.058Z,95631.00
2018-08-19T15:28:17.962Z,95630.00
2018-08-19T15:30:47.126Z,95625.00
2018-08-19T15:33:16.670Z,95624.00
2018-08-19T15:35:45.831Z,95624.00
2018-08-19T15:38:14.938Z,95621.00
2018-08-19T15:40:46.500Z,95622.00
2018-08-19T15:43:15.699Z,95619.00
2018-08-19T15:45:45.255Z,95623.00
2018-08-19T15:48:14.390Z,95616.00
2018-08-19T15:50:43.549Z,95615.00
2018-08-19T15:53:12.693Z,95616.00
2018-08-19T15:55:41.894Z,95615.00
2018-08-19T15:58:11.058Z,95611.00
2018-08-19T16:00:41.485Z,95610.00
2018-08-19T16:03:12.223Z,95610.00
2018-08-19T16:05:41.410Z,95608.00
2018-08-19T16:08:10.533Z,95607.00
2018-08-19T16:10:39.869Z,95606.00
2018-08-19T16:13:11.623Z,95614.00
2018-08-19T16:15:40.754Z,95622.00
2018-08-19T16:18:11.029Z,95610.00
2018-08-19T16:20:40.394Z,95619.00
2018-08-19T16:23:10.161Z,95611.00
2018-08-19T16:25:40.210Z,95616.00
2018-08-19T16:28:10.152Z,95606.00
2018-08-19T16:30:40.110Z,95617.00
2018-08-19T16:33:10.132Z,95608.00
2018-08-19T16:35:40.179Z,95607.00
2018-08-19T16:38:10.254Z,95603.00
2018-08-19T16:40:40.187Z,95610.00
2018-08-19T16:43:10.291Z,95610.00
2018-08-19T16:45:40.297Z,95609.00
2018-08-19T16:48:10.594Z,95618.00
2018-08-19T16:50:40.373Z,95610.00
2018-08-19T16:53:10.386Z,95605.00
2018-08-19T16:55:40.382Z,95612.00
2018-08-19T16:58:10.346Z,95610.00
2018-08-19T17:00:40.542Z,95611.00
2018-08-19T17:03:34.410Z,95606.00
2018-08-19T17:06:04.027Z,95606.00
2018-08-19T17:08:33.186Z,95603.00
2018-08-19T17:11:02.310Z,95605.00
2018-08-19T17:13:31.416Z,95605.00
2018-08-19T17:16:00.556Z,95605.00
2018-08-19T17:18:29.682Z,95614.00
2018-08-19T17:20:58.782Z,95608.00
2018-08-19T17:23:27.874Z,95607.00
2018-08-19T17:26:00.988Z,95611.00
2018-08-19T17:28:30.105Z,95611.00
2018-08-19T17:30:59.194Z,95607.00
2018-08-19T17:33:30.566Z,95610.00
2018-08-19T17:35:59.734Z,95605.00
2018-08-19T17:38:32.009Z,95597.00
2018-08-19T17:41:01.438Z,95605.00
2018-08-19T17:43:39.593Z,95608.00
2018-08-19T17:46:13.550Z,95613.00
2018-08-19T17:48:43.482Z,95614.00
2018-08-19T17:51:28.211Z,95617.00
2018-08-19T17:53:57.296Z,95625.00
2018-08-19T17:56:27.286Z,95625.00
2018-08-19T17:58:56.527Z,95618.00
2018-08-19T18:01:25.636Z,95621.00
2018-08-19T18:03:54.853Z,95621.00
2018-08-19T18:06:24.013Z,95627.00
2018-08-19T18:08:53.877Z,95623.00
2018-08-19T18:11:23.183Z,95628.00
2018-08-19T18:13:52.215Z,95622.00
2018-08-19T18:16:21.374Z,95621.00
2018-08-19T18:18:50.494Z,95622.00
2018-08-19T18:21:19.498Z,95627.00
2018-08-19T18:23:49.508Z,95624.00
2018-08-19T18:26:19.406Z,95633.00
2018-08-19T18:28:49.136Z,95635.00
2018-08-19T18:31:22.106Z,95629.00
2018-08-19T18:33:56.560Z,95631.00
2018-08-19T18:36:26.872Z,95634.00
2018-08-19T18:38:56.251Z,95636.00
2018-08-19T18:41:30.551Z,95646.00
2018-08-19T18:44:01.038Z,95637.00
2018-08-19T18:46:30.642Z,95643.00
2018-08-19T18:49:07.925Z,95641.00
2018-08-19T18:51:36.977Z,95648.00
2018-08-19T18:54:06.159Z,95647.00
2018-08-19T18:56:35.350Z,95644.00
2018-08-19T18:59:04.506Z,95647.00
2018-08-19T19:01:33.631Z,95647.00
2018-08-19T19:04:02.818Z,95650.00
2018-08-19T19:06:31.959Z,95654.00
2018-08-19T19:09:01.094Z,95654.00
2018-08-19T19:11:30.196Z,95658.00
2018-08-19T19:14:02.756Z,95645.00
2018-08-19T19:16:38.246Z,95652.00
2018-08-19T19:19:07.565Z,95656.00
2018-08-19T19:21:36.670Z,95661.00
2018-08-19T19:24:05.807Z,95659.00
2018-08-19T19:26:40.198Z,95659.00
2018-08-19T19:29:14.986Z,95657.00
2018-08-19T19:31:44.063Z,95667.00
2018-08-19T19:34:14.397Z,95664.00
2018-08-19T19:36:43.744Z,95668.00
2018-08-19T19:39:12.778Z,95673.00
2018-08-19T19:41:42.398Z,95672.00
2018-08-19T19:44:25.647Z,95673.00
2018-08-19T19:46:54.978Z,95664.00
2018-08-19T19:49:24.414Z,95664.00
2018-08-19T19:51:58.802Z,95668.00
2018-08-19T19:54:29.338Z,95666.00
2018-08-19T19:56:58.941Z,95662.00
2018-08-19T19:59:32.558Z,95667.00
2018-08-19T20:02:01.927Z,95664.00
2018-08-19T20:04:34.381Z,95669.00
2018-08-19T20:07:03.530Z,95674.00
2018-08-19T20:09:35.662Z,95670.00
2018-08-19T20:12:04.667Z,95677.00
2018-08-19T20:14:38.195Z,95673.00
2018-08-19T20:17:07.342Z,95680.00
2018-08-19T20:19:36.486Z,95674.00
2018-08-19T20:22:05.559Z,95680.00
2018-08-19T20:24:34.741Z,95672.00
2018-08-19T20:27:03.854Z,95683.00
2018-08-19T20:29:33.046Z,95679.00
2018-08-19T20:32:02.244Z,95683.00
2018-08-19T20:34:31.455Z,95688.00
2018-08-19T20:37:00.649Z,95683.00
2018-08-19T20:39:29.848Z,95684.00
2018-08-19T20:41:58.906Z,95689.00
2018-08-19T20:44:28.112Z,95688.00
2018-08-19T20:46:58.138Z,95690.00
2018-08-19T20:49:28.186Z,95690.00
2018-08-19T20:51:57.387Z,95693.00
2018-08-19T20:54:27.470Z,95690.00
2018-08-19T20:56:56.625Z,95699.00
2018-08-19T20:59:31.070Z,95696.00
2018-08-19T21:02:00.246Z,95698.00
2018-08-19T21:04:29.430Z,95699.00
2018-08-19T21:06:58.813Z,95694.00
2018-08-19T21:09:28.042Z,95694.00
2018-08-19T21:11:57.114Z,95699.00
2018-08-19T21:14:27.421Z,95699.00
2018-08-19T21:16:56.595Z,95689.00
2018-08-19T21:19:25.746Z,95700.00
2018-08-19T21:21:55.163Z,95700.00
2018-08-19T21:24:24.362Z,95698.00
2018-08-19T21:27:00.051Z,95708.00
2018-08-19T21:29:30.019Z,95703.00
2018-08-19T21:31:59.170Z,95702.00
2018-08-19T21:34:28.737Z,95708.00
2018-08-19T21:36:58.857Z,95707.00
2018-08-19T21:39:28.059Z,95715.00
2018-08-19T21:41:57.210Z,95708.00
2018-08-19T21:44:27.463Z,95708.00
2018-08-19T21:46:56.718Z,95708.00
2018-08-19T21:49:25.903Z,95703.00
2018-08-19T21:51:55.078Z,95709.00
2018-08-19T21:54:24.149Z,95709.00
2018-08-19T21:56:53.323Z,95701.00
2018-08-19T21:59:25.052Z,95698.00
2018-08-19T22:02:00.191Z,95706.00
2018-08-19T22:04:30.003Z,95705.00
2018-08-19T22:06:59.159Z,95704.00
2018-08-19T22:09:35.854Z,95705.00
2018-08-19T22:12:06.294Z,95704.00
2018-08-19T22:14:35.426Z,95703.00
2018-08-19T22:17:09.836Z,95705.00
2018-08-19T22:19:39.272Z,95709.00
2018-08-19T22:22:08.745Z,95706.00
2018-08-19T22:24:38.051Z,95708.00
2018-08-19T22:27:12.548Z,95716.00
2018-08-19T22:29:41.714Z,95706.00
2018-08-19T22:32:10.902Z,95702.00
2018-08-19T22:34:40.053Z,95705.00
2018-08-19T22:37:09.218Z,95702.00
2018-08-19T22:39:38.378Z,95703.00
2018-08-19T22:42:07.518Z,95709.00
2018-08-19T22:44:36.563Z,95717.00
2018-08-19T22:47:05.754Z,95711.00
2018-08-19T22:49:34.850Z,95711.00
2018-08-19T22:52:24.551Z,95720.00
2018-08-19T22:54:57.557Z,95715.00
2018-08-19T22:57:28.171Z,95715.00
2018-08-19T22:59:57.298Z,95716.00
2018-08-19T23:02:27.334Z,95711.00
2018-08-19T23:04:56.502Z,95716.00
2018-08-19T23:07:32.354Z,95716.00
2018-08-19T23:10:01.542Z,95706.00
2018-08-19T23:12:30.702Z,95715.00
2018-08-19T23:15:16.924Z,95720.00
2018-08-19T23:17:45.958Z,95720.00
2018-08-19T23:20:15.302Z,95719.00
2018-08-19T23:22:45.367Z,95714.00
2018-08-19T23:25:15.273Z,95719.00
2018-08-19T23:27:45.429Z,95706.00
2018-08-19T23:30:15.360Z,95703.00
2018-08-19T23:32:45.538Z,95706.00
2018-08-19T23:35:15.609Z,95705.00
2018-08-19T23:37:45.477Z,95708.00
2018-08-19T23:40:15.554Z,95700.00
2018-08-19T23:42:45.576Z,95705.00
2018-08-19T23:45:15.632Z,95700.00
2018-08-19T23:47:45.594Z,95694.00
2018-08-19T23:50:15.693Z,95693.00
2018-08-19T23:52:45.722Z,95693.00
2018-08-19T23:55:15.828Z,95704.00
2018-08-19T23:57:45.905Z,95703.00
